sensor_id;sensor_type;location;lat;lon;timestamp;temperature;humidity
36132;DHT22;22185;48.738;9.324;2023-02-13T00:00:11;1.80;99.90
36132;DHT22;22185;48.738;9.324;2023-02-13T00:02:13;1.70;99.90
36132;DHT22;22185;48.738;9.324;2023-02-13T00:04:17;1.70;99.90
36132;DHT22;22185;48.738;9.324;2023-02-13T00:06:18;1.70;99.90
36132;DHT22;22185;48.738;9.324;2023-02-13T00:08:20;1.60;99.90
36132;DHT22;22185;48.738;9.324;2023-02-13T00:10:22;1.70;99.90
36132;DHT22;22185;48.738;9.324;2023-02-13T00:12:24;1.60;99.90
36132;DHT22;22185;48.738;9.324;2023-02-13T00:14:25;1.70;99.90
36132;DHT22;22185;48.738;9.324;2023-02-13T00:16:27;1.60;99.90
36132;DHT22;22185;48.738;9.324;2023-02-13T00:18:32;1.70;99.90
36132;DHT22;22185;48.738;9.324;2023-02-13T00:20:33;1.70;99.90
36132;DHT22;22185;48.738;9.324;2023-02-13T00:27:52;1.60;99.90
36132;DHT22;22185;48.738;9.324;2023-02-13T00:29:54;1.50;99.90
36132;DHT22;22185;48.738;9.324;2023-02-13T00:31:56;1.50;99.90
36132;DHT22;22185;48.738;9.324;2023-02-13T00:33:58;1.50;99.90
36132;DHT22;22185;48.738;9.324;2023-02-13T00:36:03;1.60;99.90
36132;DHT22;22185;48.738;9.324;2023-02-13T00:38:05;1.60;99.90
36132;DHT22;22185;48.738;9.324;2023-02-13T00:40:07;1.50;99.90
36132;DHT22;22185;48.738;9.324;2023-02-13T00:42:09;1.40;99.90
36132;DHT22;22185;48.738;9.324;2023-02-13T00:44:11;1.40;99.90
36132;DHT22;22185;48.738;9.324;2023-02-13T00:46:13;1.40;99.90
36132;DHT22;22185;48.738;9.324;2023-02-13T00:48:14;1.40;99.90
36132;DHT22;22185;48.738;9.324;2023-02-13T00:50:16;1.40;99.90
36132;DHT22;22185;48.738;9.324;2023-02-13T00:52:18;1.40;99.90
36132;DHT22;22185;48.738;9.324;2023-02-13T00:54:20;1.40;99.90
36132;DHT22;22185;48.738;9.324;2023-02-13T00:56:21;1.40;99.90
36132;DHT22;22185;48.738;9.324;2023-02-13T00:58:23;1.40;99.90
36132;DHT22;22185;48.738;9.324;2023-02-13T01:00:25;1.30;99.90
36132;DHT22;22185;48.738;9.324;2023-02-13T01:02:27;1.40;99.90
36132;DHT22;22185;48.738;9.324;2023-02-13T01:04:28;1.40;99.90
36132;DHT22;22185;48.738;9.324;2023-02-13T01:06:30;1.40;99.90
36132;DHT22;22185;48.738;9.324;2023-02-13T01:08:32;1.40;99.90
36132;DHT22;22185;48.738;9.324;2023-02-13T01:10:34;1.40;99.90
36132;DHT22;22185;48.738;9.324;2023-02-13T01:12:37;1.40;99.90
36132;DHT22;22185;48.738;9.324;2023-02-13T01:14:39;1.40;99.90
36132;DHT22;22185;48.738;9.324;2023-02-13T01:16:41;1.40;99.90
36132;DHT22;22185;48.738;9.324;2023-02-13T01:18:42;1.40;99.90
36132;DHT22;22185;48.738;9.324;2023-02-13T01:20:45;1.40;99.90
36132;DHT22;22185;48.738;9.324;2023-02-13T01:22:56;1.40;99.90
36132;DHT22;22185;48.738;9.324;2023-02-13T01:24:57;1.30;99.90
36132;DHT22;22185;48.738;9.324;2023-02-13T01:26:59;1.30;99.90
36132;DHT22;22185;48.738;9.324;2023-02-13T01:29:02;1.30;99.90
36132;DHT22;22185;48.738;9.324;2023-02-13T01:31:04;1.30;99.90
36132;DHT22;22185;48.738;9.324;2023-02-13T01:33:06;1.20;99.90
36132;DHT22;22185;48.738;9.324;2023-02-13T01:35:08;1.20;99.90
36132;DHT22;22185;48.738;9.324;2023-02-13T01:37:10;1.10;99.90
36132;DHT22;22185;48.738;9.324;2023-02-13T01:39:11;1.20;99.90
36132;DHT22;22185;48.738;9.324;2023-02-13T01:41:13;1.20;99.90
36132;DHT22;22185;48.738;9.324;2023-02-13T01:43:16;1.10;99.90
36132;DHT22;22185;48.738;9.324;2023-02-13T01:45:20;1.20;99.90
36132;DHT22;22185;48.738;9.324;2023-02-13T01:49:24;1.20;99.90
36132;DHT22;22185;48.738;9.324;2023-02-13T01:51:27;1.10;99.90
36132;DHT22;22185;48.738;9.324;2023-02-13T01:53:34;1.20;99.90
36132;DHT22;22185;48.738;9.324;2023-02-13T01:58:15;1.30;99.90
36132;DHT22;22185;48.738;9.324;2023-02-13T02:00:19;1.20;99.90
36132;DHT22;22185;48.738;9.324;2023-02-13T02:02:21;1.20;99.90
36132;DHT22;22185;48.738;9.324;2023-02-13T02:04:27;1.20;99.90
36132;DHT22;22185;48.738;9.324;2023-02-13T02:06:31;1.10;99.90
36132;DHT22;22185;48.738;9.324;2023-02-13T02:08:34;1.20;99.90
36132;DHT22;22185;48.738;9.324;2023-02-13T02:10:36;1.20;99.90
36132;DHT22;22185;48.738;9.324;2023-02-13T02:14:53;1.10;99.90
36132;DHT22;22185;48.738;9.324;2023-02-13T02:16:55;1.10;99.90
36132;DHT22;22185;48.738;9.324;2023-02-13T02:18:57;1.00;99.90
36132;DHT22;22185;48.738;9.324;2023-02-13T02:29:50;0.90;99.90
36132;DHT22;22185;48.738;9.324;2023-02-13T02:34:20;0.80;99.90
36132;DHT22;22185;48.738;9.324;2023-02-13T02:36:45;0.90;99.90
36132;DHT22;22185;48.738;9.324;2023-02-13T02:43:13;0.90;99.90
36132;DHT22;22185;48.738;9.324;2023-02-13T02:45:24;0.80;99.90
36132;DHT22;22185;48.738;9.324;2023-02-13T02:47:33;0.80;99.90
36132;DHT22;22185;48.738;9.324;2023-02-13T02:50:04;0.80;99.90
36132;DHT22;22185;48.738;9.324;2023-02-13T02:52:14;0.70;99.90
36132;DHT22;22185;48.738;9.324;2023-02-13T02:56:45;0.70;99.90
36132;DHT22;22185;48.738;9.324;2023-02-13T02:58:50;0.80;99.90
36132;DHT22;22185;48.738;9.324;2023-02-13T03:01:12;0.70;99.90
36132;DHT22;22185;48.738;9.324;2023-02-13T03:03:33;0.70;99.90
36132;DHT22;22185;48.738;9.324;2023-02-13T03:05:54;0.70;99.90
36132;DHT22;22185;48.738;9.324;2023-02-13T03:08:11;0.70;99.90
36132;DHT22;22185;48.738;9.324;2023-02-13T03:10:19;0.60;99.90
36132;DHT22;22185;48.738;9.324;2023-02-13T03:12:47;0.60;99.90
36132;DHT22;22185;48.738;9.324;2023-02-13T03:15:08;0.60;99.90
36132;DHT22;22185;48.738;9.324;2023-02-13T03:17:11;0.60;99.90
36132;DHT22;22185;48.738;9.324;2023-02-13T03:22:22;0.50;99.90
36132;DHT22;22185;48.738;9.324;2023-02-13T03:26:48;0.50;99.90
36132;DHT22;22185;48.738;9.324;2023-02-13T03:28:57;0.40;99.90
36132;DHT22;22185;48.738;9.324;2023-02-13T03:31:44;0.40;99.90
36132;DHT22;22185;48.738;9.324;2023-02-13T03:38:15;0.30;99.90
36132;DHT22;22185;48.738;9.324;2023-02-13T03:40:29;0.30;99.90
36132;DHT22;22185;48.738;9.324;2023-02-13T03:42:47;0.30;99.90
36132;DHT22;22185;48.738;9.324;2023-02-13T03:44:53;0.30;99.90
36132;DHT22;22185;48.738;9.324;2023-02-13T03:47:15;0.30;99.90
36132;DHT22;22185;48.738;9.324;2023-02-13T03:49:21;0.30;99.90
36132;DHT22;22185;48.738;9.324;2023-02-13T03:51:43;0.30;99.90
36132;DHT22;22185;48.738;9.324;2023-02-13T03:53:46;0.30;99.90
36132;DHT22;22185;48.738;9.324;2023-02-13T03:55:50;0.20;99.90
36132;DHT22;22185;48.738;9.324;2023-02-13T03:58:16;0.20;99.90
36132;DHT22;22185;48.738;9.324;2023-02-13T04:00:38;0.20;99.90
36132;DHT22;22185;48.738;9.324;2023-02-13T04:02:57;0.20;99.90
36132;DHT22;22185;48.738;9.324;2023-02-13T04:05:05;0.10;99.90
36132;DHT22;22185;48.738;9.324;2023-02-13T04:07:09;0.20;99.90
36132;DHT22;22185;48.738;9.324;2023-02-13T04:09:12;0.20;99.90
36132;DHT22;22185;48.738;9.324;2023-02-13T04:11:17;0.20;99.90
36132;DHT22;22185;48.738;9.324;2023-02-13T04:13:35;0.20;99.90
36132;DHT22;22185;48.738;9.324;2023-02-13T04:15:53;0.10;99.90
36132;DHT22;22185;48.738;9.324;2023-02-13T04:18:18;0.10;99.90
36132;DHT22;22185;48.738;9.324;2023-02-13T04:20:18;0.10;99.90
36132;DHT22;22185;48.738;9.324;2023-02-13T04:22:20;0.00;99.90
36132;DHT22;22185;48.738;9.324;2023-02-13T04:24:22;0.10;99.90
36132;DHT22;22185;48.738;9.324;2023-02-13T04:26:23;0.10;99.90
36132;DHT22;22185;48.738;9.324;2023-02-13T04:28:26;0.10;99.90
36132;DHT22;22185;48.738;9.324;2023-02-13T04:30:28;0.00;99.90
36132;DHT22;22185;48.738;9.324;2023-02-13T04:32:29;0.00;99.90
36132;DHT22;22185;48.738;9.324;2023-02-13T04:34:31;-0.10;99.90
36132;DHT22;22185;48.738;9.324;2023-02-13T04:36:33;-0.10;99.90
36132;DHT22;22185;48.738;9.324;2023-02-13T04:38:34;0.00;99.90
36132;DHT22;22185;48.738;9.324;2023-02-13T04:40:36;-0.10;99.90
36132;DHT22;22185;48.738;9.324;2023-02-13T04:42:37;-0.10;99.90
36132;DHT22;22185;48.738;9.324;2023-02-13T04:44:39;-0.10;99.90
36132;DHT22;22185;48.738;9.324;2023-02-13T04:46:41;-0.20;99.90
36132;DHT22;22185;48.738;9.324;2023-02-13T04:48:42;-0.20;99.90
36132;DHT22;22185;48.738;9.324;2023-02-13T04:50:44;-0.10;99.90
36132;DHT22;22185;48.738;9.324;2023-02-13T04:52:46;-0.10;99.90
36132;DHT22;22185;48.738;9.324;2023-02-13T04:54:48;-0.20;99.90
36132;DHT22;22185;48.738;9.324;2023-02-13T04:56:49;-0.10;99.90
36132;DHT22;22185;48.738;9.324;2023-02-13T04:58:51;-0.20;99.90
36132;DHT22;22185;48.738;9.324;2023-02-13T05:00:53;-0.20;99.90
36132;DHT22;22185;48.738;9.324;2023-02-13T05:02:59;-0.20;99.90
36132;DHT22;22185;48.738;9.324;2023-02-13T05:05:01;-0.30;99.90
36132;DHT22;22185;48.738;9.324;2023-02-13T05:07:02;-0.30;99.90
36132;DHT22;22185;48.738;9.324;2023-02-13T05:09:04;-0.30;99.90
36132;DHT22;22185;48.738;9.324;2023-02-13T05:11:06;-0.30;99.90
36132;DHT22;22185;48.738;9.324;2023-02-13T05:13:07;-0.40;99.90
36132;DHT22;22185;48.738;9.324;2023-02-13T05:15:09;-0.40;99.90
36132;DHT22;22185;48.738;9.324;2023-02-13T05:17:11;-0.30;99.90
36132;DHT22;22185;48.738;9.324;2023-02-13T05:19:12;-0.40;99.90
36132;DHT22;22185;48.738;9.324;2023-02-13T05:21:14;-0.40;99.90
36132;DHT22;22185;48.738;9.324;2023-02-13T05:23:34;-0.40;99.90
36132;DHT22;22185;48.738;9.324;2023-02-13T05:25:37;-0.40;99.90
36132;DHT22;22185;48.738;9.324;2023-02-13T05:27:39;-0.40;99.90
36132;DHT22;22185;48.738;9.324;2023-02-13T05:29:40;-0.30;99.90
36132;DHT22;22185;48.738;9.324;2023-02-13T05:31:42;-0.40;99.90
36132;DHT22;22185;48.738;9.324;2023-02-13T05:33:44;-0.40;99.90
36132;DHT22;22185;48.738;9.324;2023-02-13T05:35:45;-0.40;99.90
36132;DHT22;22185;48.738;9.324;2023-02-13T05:37:47;-0.40;99.90
36132;DHT22;22185;48.738;9.324;2023-02-13T05:39:49;-0.40;99.90
36132;DHT22;22185;48.738;9.324;2023-02-13T05:41:50;-0.40;99.90
36132;DHT22;22185;48.738;9.324;2023-02-13T05:43:52;-0.40;99.90
36132;DHT22;22185;48.738;9.324;2023-02-13T05:46:00;-0.50;99.90
36132;DHT22;22185;48.738;9.324;2023-02-13T05:48:02;-0.40;99.90
36132;DHT22;22185;48.738;9.324;2023-02-13T05:50:04;-0.40;99.90
36132;DHT22;22185;48.738;9.324;2023-02-13T05:52:05;-0.50;99.90
36132;DHT22;22185;48.738;9.324;2023-02-13T05:54:07;-0.50;99.90
36132;DHT22;22185;48.738;9.324;2023-02-13T05:56:09;-0.50;99.90
36132;DHT22;22185;48.738;9.324;2023-02-13T05:58:10;-0.50;99.90
36132;DHT22;22185;48.738;9.324;2023-02-13T06:00:12;-0.50;99.90
36132;DHT22;22185;48.738;9.324;2023-02-13T06:02:14;-0.50;99.90
36132;DHT22;22185;48.738;9.324;2023-02-13T06:04:16;-0.50;99.90
36132;DHT22;22185;48.738;9.324;2023-02-13T06:06:17;-0.60;99.90
36132;DHT22;22185;48.738;9.324;2023-02-13T06:08:20;-0.50;99.90
36132;DHT22;22185;48.738;9.324;2023-02-13T06:10:22;-0.50;99.90
36132;DHT22;22185;48.738;9.324;2023-02-13T06:12:24;-0.60;99.90
36132;DHT22;22185;48.738;9.324;2023-02-13T06:14:27;-0.60;99.90
36132;DHT22;22185;48.738;9.324;2023-02-13T06:16:29;-0.60;99.90
36132;DHT22;22185;48.738;9.324;2023-02-13T06:18:31;-0.60;99.90
36132;DHT22;22185;48.738;9.324;2023-02-13T06:20:33;-0.60;99.90
36132;DHT22;22185;48.738;9.324;2023-02-13T06:22:35;-0.60;99.90
36132;DHT22;22185;48.738;9.324;2023-02-13T06:24:36;-0.70;99.90
36132;DHT22;22185;48.738;9.324;2023-02-13T06:26:38;-0.60;99.90
36132;DHT22;22185;48.738;9.324;2023-02-13T06:28:39;-0.60;99.90
36132;DHT22;22185;48.738;9.324;2023-02-13T06:30:41;-0.70;99.90
36132;DHT22;22185;48.738;9.324;2023-02-13T06:32:44;-0.70;99.90
36132;DHT22;22185;48.738;9.324;2023-02-13T06:34:46;-0.60;99.90
36132;DHT22;22185;48.738;9.324;2023-02-13T06:36:48;-0.60;99.90
36132;DHT22;22185;48.738;9.324;2023-02-13T06:38:50;-0.60;99.90
36132;DHT22;22185;48.738;9.324;2023-02-13T06:40:51;-0.60;99.90
36132;DHT22;22185;48.738;9.324;2023-02-13T06:42:53;-0.50;99.90
36132;DHT22;22185;48.738;9.324;2023-02-13T06:44:55;-0.50;99.90
36132;DHT22;22185;48.738;9.324;2023-02-13T06:46:56;-0.50;99.90
36132;DHT22;22185;48.738;9.324;2023-02-13T06:48:58;-0.40;99.90
36132;DHT22;22185;48.738;9.324;2023-02-13T06:51:00;-0.50;99.90
36132;DHT22;22185;48.738;9.324;2023-02-13T06:53:04;-0.40;99.90
36132;DHT22;22185;48.738;9.324;2023-02-13T06:55:06;-0.40;99.90
36132;DHT22;22185;48.738;9.324;2023-02-13T06:57:08;-0.30;99.90
36132;DHT22;22185;48.738;9.324;2023-02-13T06:59:09;-0.20;99.90
36132;DHT22;22185;48.738;9.324;2023-02-13T07:01:11;-0.20;99.90
36132;DHT22;22185;48.738;9.324;2023-02-13T07:03:13;-0.30;99.90
36132;DHT22;22185;48.738;9.324;2023-02-13T07:05:14;-0.30;99.90
36132;DHT22;22185;48.738;9.324;2023-02-13T07:07:16;-0.30;99.90
36132;DHT22;22185;48.738;9.324;2023-02-13T07:09:18;-0.30;99.90
36132;DHT22;22185;48.738;9.324;2023-02-13T07:11:20;-0.30;99.90
36132;DHT22;22185;48.738;9.324;2023-02-13T07:13:22;-0.30;99.90
36132;DHT22;22185;48.738;9.324;2023-02-13T07:15:24;-0.20;99.90
36132;DHT22;22185;48.738;9.324;2023-02-13T07:17:26;-0.20;99.90
36132;DHT22;22185;48.738;9.324;2023-02-13T07:19:36;-0.20;99.90
36132;DHT22;22185;48.738;9.324;2023-02-13T07:21:38;-0.30;99.90
36132;DHT22;22185;48.738;9.324;2023-02-13T07:23:40;-0.30;99.90
36132;DHT22;22185;48.738;9.324;2023-02-13T07:25:41;-0.20;99.90
36132;DHT22;22185;48.738;9.324;2023-02-13T07:27:43;-0.10;99.90
36132;DHT22;22185;48.738;9.324;2023-02-13T07:29:45;0.10;99.90
36132;DHT22;22185;48.738;9.324;2023-02-13T07:31:46;0.00;99.90
36132;DHT22;22185;48.738;9.324;2023-02-13T07:33:48;0.00;99.90
36132;DHT22;22185;48.738;9.324;2023-02-13T07:35:50;0.00;99.90
36132;DHT22;22185;48.738;9.324;2023-02-13T07:37:53;0.10;99.90
36132;DHT22;22185;48.738;9.324;2023-02-13T07:39:55;0.20;99.90
36132;DHT22;22185;48.738;9.324;2023-02-13T07:41:57;0.10;99.90
36132;DHT22;22185;48.738;9.324;2023-02-13T07:43:58;0.20;99.90
36132;DHT22;22185;48.738;9.324;2023-02-13T07:46:00;0.20;99.90
36132;DHT22;22185;48.738;9.324;2023-02-13T07:48:02;0.20;99.90
36132;DHT22;22185;48.738;9.324;2023-02-13T07:50:04;0.20;99.90
36132;DHT22;22185;48.738;9.324;2023-02-13T07:52:06;0.40;99.90
36132;DHT22;22185;48.738;9.324;2023-02-13T07:54:08;0.50;99.90
36132;DHT22;22185;48.738;9.324;2023-02-13T07:56:09;0.50;99.90
36132;DHT22;22185;48.738;9.324;2023-02-13T07:58:11;0.40;99.90
36132;DHT22;22185;48.738;9.324;2023-02-13T08:00:13;0.50;99.90
36132;DHT22;22185;48.738;9.324;2023-02-13T08:02:15;0.60;99.90
36132;DHT22;22185;48.738;9.324;2023-02-13T08:04:17;0.60;99.90
36132;DHT22;22185;48.738;9.324;2023-02-13T08:06:19;0.60;99.90
36132;DHT22;22185;48.738;9.324;2023-02-13T08:08:20;0.60;99.90
36132;DHT22;22185;48.738;9.324;2023-02-13T08:10:22;0.70;99.90
36132;DHT22;22185;48.738;9.324;2023-02-13T08:12:43;0.70;99.90
36132;DHT22;22185;48.738;9.324;2023-02-13T08:14:44;0.80;99.90
36132;DHT22;22185;48.738;9.324;2023-02-13T08:16:46;0.80;99.90
36132;DHT22;22185;48.738;9.324;2023-02-13T08:18:48;0.80;99.90
36132;DHT22;22185;48.738;9.324;2023-02-13T08:20:49;0.90;99.90
36132;DHT22;22185;48.738;9.324;2023-02-13T08:22:51;0.90;99.90
36132;DHT22;22185;48.738;9.324;2023-02-13T08:24:53;0.80;99.90
36132;DHT22;22185;48.738;9.324;2023-02-13T08:26:55;0.90;99.90
36132;DHT22;22185;48.738;9.324;2023-02-13T08:28:56;0.90;99.90
36132;DHT22;22185;48.738;9.324;2023-02-13T08:30:58;1.00;99.90
36132;DHT22;22185;48.738;9.324;2023-02-13T08:33:00;1.00;99.90
36132;DHT22;22185;48.738;9.324;2023-02-13T08:35:02;1.10;99.90
36132;DHT22;22185;48.738;9.324;2023-02-13T08:37:03;1.10;99.90
36132;DHT22;22185;48.738;9.324;2023-02-13T08:39:05;1.20;99.90
36132;DHT22;22185;48.738;9.324;2023-02-13T08:41:07;1.40;99.90
36132;DHT22;22185;48.738;9.324;2023-02-13T08:43:10;1.40;99.90
36132;DHT22;22185;48.738;9.324;2023-02-13T08:45:12;1.50;99.90
36132;DHT22;22185;48.738;9.324;2023-02-13T08:47:14;1.60;99.90
36132;DHT22;22185;48.738;9.324;2023-02-13T08:49:15;1.60;99.90
36132;DHT22;22185;48.738;9.324;2023-02-13T08:51:20;1.70;99.90
36132;DHT22;22185;48.738;9.324;2023-02-13T08:53:22;1.70;99.90
36132;DHT22;22185;48.738;9.324;2023-02-13T08:55:24;1.80;99.90
36132;DHT22;22185;48.738;9.324;2023-02-13T08:57:25;1.80;99.90
36132;DHT22;22185;48.738;9.324;2023-02-13T08:59:27;2.00;99.90
36132;DHT22;22185;48.738;9.324;2023-02-13T09:01:29;2.00;99.90
36132;DHT22;22185;48.738;9.324;2023-02-13T09:03:30;2.10;99.90
36132;DHT22;22185;48.738;9.324;2023-02-13T09:05:32;2.20;99.90
36132;DHT22;22185;48.738;9.324;2023-02-13T09:07:34;2.30;99.90
36132;DHT22;22185;48.738;9.324;2023-02-13T09:09:35;2.40;99.90
36132;DHT22;22185;48.738;9.324;2023-02-13T09:11:37;2.60;99.90
36132;DHT22;22185;48.738;9.324;2023-02-13T09:13:39;2.70;99.90
36132;DHT22;22185;48.738;9.324;2023-02-13T09:15:41;2.80;99.90
36132;DHT22;22185;48.738;9.324;2023-02-13T09:17:43;2.90;99.90
36132;DHT22;22185;48.738;9.324;2023-02-13T09:19:45;2.90;99.90
36132;DHT22;22185;48.738;9.324;2023-02-13T09:21:47;3.00;99.90
36132;DHT22;22185;48.738;9.324;2023-02-13T09:23:49;3.20;99.90
36132;DHT22;22185;48.738;9.324;2023-02-13T09:25:57;3.40;99.90
36132;DHT22;22185;48.738;9.324;2023-02-13T09:27:59;3.50;99.90
36132;DHT22;22185;48.738;9.324;2023-02-13T09:30:01;3.50;99.90
36132;DHT22;22185;48.738;9.324;2023-02-13T09:32:03;3.60;99.90
36132;DHT22;22185;48.738;9.324;2023-02-13T09:34:05;3.80;99.90
36132;DHT22;22185;48.738;9.324;2023-02-13T09:36:08;3.80;99.90
36132;DHT22;22185;48.738;9.324;2023-02-13T09:38:10;3.90;99.90
36132;DHT22;22185;48.738;9.324;2023-02-13T09:40:34;3.90;99.90
36132;DHT22;22185;48.738;9.324;2023-02-13T09:42:34;4.00;99.90
36132;DHT22;22185;48.738;9.324;2023-02-13T09:44:38;4.20;99.90
36132;DHT22;22185;48.738;9.324;2023-02-13T09:46:43;4.30;99.90
36132;DHT22;22185;48.738;9.324;2023-02-13T09:48:55;4.40;99.90
36132;DHT22;22185;48.738;9.324;2023-02-13T09:50:57;4.50;99.90
36132;DHT22;22185;48.738;9.324;2023-02-13T09:52:59;4.40;99.90
36132;DHT22;22185;48.738;9.324;2023-02-13T09:55:02;4.40;99.90
36132;DHT22;22185;48.738;9.324;2023-02-13T10:01:49;4.90;99.90
36132;DHT22;22185;48.738;9.324;2023-02-13T10:06:00;5.30;99.90
36132;DHT22;22185;48.738;9.324;2023-02-13T10:08:20;5.40;99.90
36132;DHT22;22185;48.738;9.324;2023-02-13T10:14:38;5.70;99.90
36132;DHT22;22185;48.738;9.324;2023-02-13T10:16:43;5.80;99.90
36132;DHT22;22185;48.738;9.324;2023-02-13T10:18:56;5.80;99.90
36132;DHT22;22185;48.738;9.324;2023-02-13T10:21:00;5.90;99.90
36132;DHT22;22185;48.738;9.324;2023-02-13T10:23:24;6.20;99.90
36132;DHT22;22185;48.738;9.324;2023-02-13T10:25:26;6.30;99.90
36132;DHT22;22185;48.738;9.324;2023-02-13T10:27:33;6.50;99.90
36132;DHT22;22185;48.738;9.324;2023-02-13T10:29:37;6.50;99.90
36132;DHT22;22185;48.738;9.324;2023-02-13T10:31:58;6.30;99.90
36132;DHT22;22185;48.738;9.324;2023-02-13T10:34:03;6.40;99.90
36132;DHT22;22185;48.738;9.324;2023-02-13T10:36:10;6.50;99.90
36132;DHT22;22185;48.738;9.324;2023-02-13T10:38:17;6.60;99.90
36132;DHT22;22185;48.738;9.324;2023-02-13T10:40:20;6.60;99.90
36132;DHT22;22185;48.738;9.324;2023-02-13T10:51:41;7.20;99.90
36132;DHT22;22185;48.738;9.324;2023-02-13T11:02:26;7.90;99.90
36132;DHT22;22185;48.738;9.324;2023-02-13T11:04:29;7.90;99.90
36132;DHT22;22185;48.738;9.324;2023-02-13T11:06:31;8.20;99.90
36132;DHT22;22185;48.738;9.324;2023-02-13T11:08:41;8.40;99.90
36132;DHT22;22185;48.738;9.324;2023-02-13T11:10:43;8.30;99.90
36132;DHT22;22185;48.738;9.324;2023-02-13T11:12:45;8.50;99.90
36132;DHT22;22185;48.738;9.324;2023-02-13T11:15:00;8.60;99.90
36132;DHT22;22185;48.738;9.324;2023-02-13T11:17:05;8.70;99.90
36132;DHT22;22185;48.738;9.324;2023-02-13T11:19:18;8.90;99.90
36132;DHT22;22185;48.738;9.324;2023-02-13T11:21:30;9.00;99.90
36132;DHT22;22185;48.738;9.324;2023-02-13T11:23:44;9.30;99.90
36132;DHT22;22185;48.738;9.324;2023-02-13T11:26:03;8.70;99.90
36132;DHT22;22185;48.738;9.324;2023-02-13T11:28:09;8.90;99.90
36132;DHT22;22185;48.738;9.324;2023-02-13T11:32:25;9.50;99.90
36132;DHT22;22185;48.738;9.324;2023-02-13T11:34:29;9.60;99.90
36132;DHT22;22185;48.738;9.324;2023-02-13T11:36:32;9.70;99.90
36132;DHT22;22185;48.738;9.324;2023-02-13T11:38:34;9.90;99.90
36132;DHT22;22185;48.738;9.324;2023-02-13T11:40:36;10.00;99.90
36132;DHT22;22185;48.738;9.324;2023-02-13T11:42:40;10.20;99.90
36132;DHT22;22185;48.738;9.324;2023-02-13T11:44:43;10.00;99.90
36132;DHT22;22185;48.738;9.324;2023-02-13T11:46:49;9.90;99.90
36132;DHT22;22185;48.738;9.324;2023-02-13T11:50:57;9.60;99.90
36132;DHT22;22185;48.738;9.324;2023-02-13T11:55:04;9.30;99.90
36132;DHT22;22185;48.738;9.324;2023-02-13T11:57:28;10.00;99.90
36132;DHT22;22185;48.738;9.324;2023-02-13T11:59:31;10.20;99.90
36132;DHT22;22185;48.738;9.324;2023-02-13T12:01:34;10.50;99.90
36132;DHT22;22185;48.738;9.324;2023-02-13T12:03:35;10.40;99.90
36132;DHT22;22185;48.738;9.324;2023-02-13T12:05:39;10.10;99.90
36132;DHT22;22185;48.738;9.324;2023-02-13T12:07:41;10.80;99.90
36132;DHT22;22185;48.738;9.324;2023-02-13T12:09:44;11.20;99.90
36132;DHT22;22185;48.738;9.324;2023-02-13T12:11:53;11.50;99.90
36132;DHT22;22185;48.738;9.324;2023-02-13T12:13:55;11.10;99.90
36132;DHT22;22185;48.738;9.324;2023-02-13T12:15:59;11.10;99.90
36132;DHT22;22185;48.738;9.324;2023-02-13T12:20:12;11.50;99.90
36132;DHT22;22185;48.738;9.324;2023-02-13T12:26:56;11.30;99.90
36132;DHT22;22185;48.738;9.324;2023-02-13T12:35:45;12.50;99.90
36132;DHT22;22185;48.738;9.324;2023-02-13T12:38:23;12.40;99.90
36132;DHT22;22185;48.738;9.324;2023-02-13T12:40:22;12.80;99.90
36132;DHT22;22185;48.738;9.324;2023-02-13T12:58:11;13.00;99.90
36132;DHT22;22185;48.738;9.324;2023-02-13T13:18:12;19.10;99.90
36132;DHT22;22185;48.738;9.324;2023-02-13T13:20:34;18.60;99.90
36132;DHT22;22185;48.738;9.324;2023-02-13T13:22:42;19.00;99.90
36132;DHT22;22185;48.738;9.324;2023-02-13T13:26:55;19.20;97.70
36132;DHT22;22185;48.738;9.324;2023-02-13T13:28:58;18.90;99.90
36132;DHT22;22185;48.738;9.324;2023-02-13T13:31:00;18.60;99.90
36132;DHT22;22185;48.738;9.324;2023-02-13T13:35:12;17.80;99.90
36132;DHT22;22185;48.738;9.324;2023-02-13T13:44:13;17.40;99.90
36132;DHT22;22185;48.738;9.324;2023-02-13T13:50:29;16.90;99.90
36132;DHT22;22185;48.738;9.324;2023-02-13T13:52:32;16.40;99.90
36132;DHT22;22185;48.738;9.324;2023-02-13T13:54:34;16.70;99.90
36132;DHT22;22185;48.738;9.324;2023-02-13T13:58:53;16.40;99.90
36132;DHT22;22185;48.738;9.324;2023-02-13T14:03:21;15.50;99.90
36132;DHT22;22185;48.738;9.324;2023-02-13T14:05:30;15.50;99.90
36132;DHT22;22185;48.738;9.324;2023-02-13T14:07:33;15.30;99.90
36132;DHT22;22185;48.738;9.324;2023-02-13T14:09:38;15.60;99.90
36132;DHT22;22185;48.738;9.324;2023-02-13T14:11:41;15.20;99.90
36132;DHT22;22185;48.738;9.324;2023-02-13T14:13:47;15.00;99.90
36132;DHT22;22185;48.738;9.324;2023-02-13T14:15:51;15.60;99.90
36132;DHT22;22185;48.738;9.324;2023-02-13T14:17:53;16.00;99.90
36132;DHT22;22185;48.738;9.324;2023-02-13T14:19:54;15.80;99.90
36132;DHT22;22185;48.738;9.324;2023-02-13T14:24:36;16.00;99.90
36132;DHT22;22185;48.738;9.324;2023-02-13T14:26:38;16.60;99.90
36132;DHT22;22185;48.738;9.324;2023-02-13T14:29:26;16.10;99.90
36132;DHT22;22185;48.738;9.324;2023-02-13T14:31:03;15.80;99.90
36132;DHT22;22185;48.738;9.324;2023-02-13T14:33:06;15.30;99.90
36132;DHT22;22185;48.738;9.324;2023-02-13T14:37:18;14.50;99.90
36132;DHT22;22185;48.738;9.324;2023-02-13T14:39:28;14.60;99.90
36132;DHT22;22185;48.738;9.324;2023-02-13T14:43:49;15.10;99.90
36132;DHT22;22185;48.738;9.324;2023-02-13T14:46:01;14.80;99.90
36132;DHT22;22185;48.738;9.324;2023-02-13T14:48:05;14.80;99.90
36132;DHT22;22185;48.738;9.324;2023-02-13T14:50:07;15.10;99.90
36132;DHT22;22185;48.738;9.324;2023-02-13T14:52:19;15.30;99.90
36132;DHT22;22185;48.738;9.324;2023-02-13T14:54:36;15.00;99.90
36132;DHT22;22185;48.738;9.324;2023-02-13T14:56:39;15.10;99.90
36132;DHT22;22185;48.738;9.324;2023-02-13T14:58:59;14.70;99.90
36132;DHT22;22185;48.738;9.324;2023-02-13T15:01:02;14.60;99.90
36132;DHT22;22185;48.738;9.324;2023-02-13T15:05:28;13.90;99.90
36132;DHT22;22185;48.738;9.324;2023-02-13T15:07:35;14.30;99.90
36132;DHT22;22185;48.738;9.324;2023-02-13T15:09:38;14.50;99.90
36132;DHT22;22185;48.738;9.324;2023-02-13T15:11:41;14.50;99.90
36132;DHT22;22185;48.738;9.324;2023-02-13T15:13:43;14.00;99.90
36132;DHT22;22185;48.738;9.324;2023-02-13T15:15:50;13.90;99.90
36132;DHT22;22185;48.738;9.324;2023-02-13T15:17:53;13.80;99.90
36132;DHT22;22185;48.738;9.324;2023-02-13T15:20:02;13.80;99.90
36132;DHT22;22185;48.738;9.324;2023-02-13T15:22:05;13.40;99.90
36132;DHT22;22185;48.738;9.324;2023-02-13T15:24:10;12.90;99.90
36132;DHT22;22185;48.738;9.324;2023-02-13T15:26:18;12.60;99.90
36132;DHT22;22185;48.738;9.324;2023-02-13T15:28:20;12.50;99.90
36132;DHT22;22185;48.738;9.324;2023-02-13T15:32:27;12.10;99.90
36132;DHT22;22185;48.738;9.324;2023-02-13T15:34:30;11.80;99.90
36132;DHT22;22185;48.738;9.324;2023-02-13T15:36:39;11.90;99.90
36132;DHT22;22185;48.738;9.324;2023-02-13T15:38:40;11.40;99.90
36132;DHT22;22185;48.738;9.324;2023-02-13T15:40:43;11.00;99.90
36132;DHT22;22185;48.738;9.324;2023-02-13T15:42:44;10.70;99.90
36132;DHT22;22185;48.738;9.324;2023-02-13T15:44:47;10.60;99.90
36132;DHT22;22185;48.738;9.324;2023-02-13T15:46:50;10.70;99.90
36132;DHT22;22185;48.738;9.324;2023-02-13T15:48:54;10.50;99.90